createdAt,value
2024-02-29T00:00:02.020Z,10.93
2024-02-29T00:03:11.136Z,11.65
2024-02-29T00:06:13.580Z,9.32
2024-02-29T00:09:16.117Z,11.73
2024-02-29T00:12:18.948Z,9.57
2024-02-29T00:15:21.581Z,11.80
2024-02-29T00:18:23.998Z,10.80
2024-02-29T00:21:26.514Z,10.25
2024-02-29T00:24:29.319Z,11.05
2024-02-29T00:27:34.612Z,10.50
2024-02-29T00:30:37.203Z,11.37
2024-02-29T00:33:40.923Z,10.57
2024-02-29T00:36:43.420Z,10.00
2024-02-29T00:39:45.880Z,11.50
2024-02-29T00:42:48.566Z,12.40
2024-02-29T00:45:51.507Z,10.70
2024-02-29T00:48:54.104Z,11.95
2024-02-29T00:51:56.572Z,11.20
2024-02-29T00:54:59.069Z,9.73
2024-02-29T00:58:01.492Z,11.25
2024-02-29T01:01:04.359Z,11.33
2024-02-29T01:04:07.124Z,12.15
2024-02-29T01:07:09.717Z,11.65
2024-02-29T01:10:13.037Z,13.03
2024-02-29T01:13:16.193Z,11.73
2024-02-29T01:16:18.756Z,13.00
2024-02-29T01:19:21.249Z,12.80
2024-02-29T01:22:23.791Z,12.82
2024-02-29T01:25:26.526Z,10.73
2024-02-29T01:28:28.915Z,11.68
2024-02-29T01:31:31.443Z,11.90
2024-02-29T01:34:35.298Z,12.60
2024-02-29T01:37:37.717Z,12.05
2024-02-29T01:40:40.124Z,9.27
2024-02-29T01:43:51.788Z,10.95
2024-02-29T01:46:54.654Z,10.25
2024-02-29T01:50:00.413Z,11.05
2024-02-29T01:53:02.877Z,11.25
2024-02-29T01:56:05.782Z,11.35
2024-02-29T01:59:12.297Z,12.15
2024-02-29T02:02:14.837Z,10.73
2024-02-29T02:05:17.374Z,11.10
2024-02-29T02:08:19.971Z,10.65
2024-02-29T02:11:22.525Z,9.53
2024-02-29T02:14:25.202Z,8.90
2024-02-29T02:17:27.749Z,8.32
2024-02-29T02:20:30.500Z,7.57
2024-02-29T02:23:33.206Z,7.63
2024-02-29T02:26:35.781Z,8.38
2024-02-29T02:29:38.298Z,7.30
2024-02-29T02:32:41.426Z,8.03
2024-02-29T02:35:43.942Z,7.20
2024-02-29T02:38:46.401Z,7.38
2024-02-29T02:41:49.412Z,8.03
2024-02-29T02:44:51.985Z,8.63
2024-02-29T02:47:54.684Z,8.57
2024-02-29T02:50:57.247Z,8.18
2024-02-29T02:53:59.715Z,8.25
2024-02-29T02:57:02.236Z,7.00
2024-02-29T03:00:06.464Z,7.13
2024-02-29T03:03:10.394Z,7.70
2024-02-29T03:06:15.261Z,8.35
2024-02-29T03:09:17.824Z,7.57
2024-02-29T03:12:20.323Z,8.97
2024-02-29T03:15:22.821Z,7.53
2024-02-29T03:18:25.214Z,8.55
2024-02-29T03:21:29.271Z,7.90
2024-02-29T03:24:31.871Z,7.80
2024-02-29T03:27:34.548Z,7.82
2024-02-29T03:30:37.013Z,8.25
2024-02-29T03:33:39.702Z,7.70
2024-02-29T03:36:42.271Z,7.45
2024-02-29T03:39:45.502Z,6.55
2024-02-29T03:42:48.037Z,6.47
2024-02-29T03:45:50.546Z,6.88
2024-02-29T03:48:53.112Z,6.35
2024-02-29T03:51:55.548Z,7.60
2024-02-29T03:54:58.049Z,7.50
2024-02-29T03:58:00.596Z,6.20
2024-02-29T04:01:03.282Z,7.57
2024-02-29T04:04:06.850Z,7.93
2024-02-29T04:07:09.411Z,6.82
2024-02-29T04:10:12.664Z,8.00
2024-02-29T04:13:15.718Z,7.63
2024-02-29T04:16:18.426Z,6.13
2024-02-29T04:19:21.691Z,6.88
2024-02-29T04:22:24.566Z,6.55
2024-02-29T04:25:28.030Z,6.88
2024-02-29T04:28:30.469Z,7.55
2024-02-29T04:31:32.895Z,7.25
2024-02-29T04:34:35.312Z,5.97
2024-02-29T04:37:38.591Z,6.63
2024-02-29T04:40:41.016Z,7.50
2024-02-29T04:43:43.457Z,7.63
2024-02-29T04:46:45.860Z,7.78
2024-02-29T04:49:48.367Z,6.60
2024-02-29T04:52:50.861Z,7.32
2024-02-29T04:55:53.426Z,5.93
2024-02-29T04:58:55.863Z,6.72
2024-02-29T05:01:59.050Z,7.35
2024-02-29T05:05:01.620Z,8.70
2024-02-29T05:08:04.746Z,7.30
2024-02-29T05:11:10.887Z,6.72
2024-02-29T05:14:13.349Z,7.30
2024-02-29T05:17:16.041Z,7.28
2024-02-29T05:20:18.416Z,9.52
2024-02-29T05:23:20.824Z,9.40
2024-02-29T05:26:23.415Z,8.98
2024-02-29T05:29:26.583Z,8.00
2024-02-29T05:32:32.060Z,6.78
2024-02-29T05:35:34.701Z,8.53
2024-02-29T05:38:37.334Z,7.65
2024-02-29T05:41:40.475Z,8.48
2024-02-29T05:44:42.986Z,8.43
2024-02-29T05:47:45.655Z,9.43
2024-02-29T05:50:48.326Z,8.90
2024-02-29T05:53:50.844Z,7.72
2024-02-29T05:56:55.177Z,8.65
2024-02-29T05:59:58.025Z,9.07
2024-02-29T06:03:00.482Z,9.07
2024-02-29T06:06:03.126Z,8.67
2024-02-29T06:09:05.601Z,8.00
2024-02-29T06:12:08.400Z,6.97
2024-02-29T06:15:12.133Z,8.60
2024-02-29T06:18:15.120Z,7.28
2024-02-29T06:21:17.646Z,7.97
2024-02-29T06:24:20.321Z,8.38
2024-02-29T06:27:27.992Z,9.27
2024-02-29T06:30:33.539Z,8.45
2024-02-29T06:33:37.237Z,7.90
2024-02-29T06:36:39.906Z,8.47
2024-02-29T06:39:42.564Z,7.18
2024-02-29T06:42:45.647Z,10.13
2024-02-29T06:45:49.967Z,9.33
2024-02-29T06:48:52.525Z,7.15
2024-02-29T06:51:55.113Z,9.13
2024-02-29T06:54:57.626Z,7.85
2024-02-29T06:58:00.400Z,7.22
2024-02-29T07:01:03.780Z,8.25
2024-02-29T07:04:08.354Z,7.20
2024-02-29T07:07:11.262Z,10.07
2024-02-29T07:10:14.137Z,8.55
2024-02-29T07:13:16.733Z,9.85
2024-02-29T07:16:21.478Z,9.33
2024-02-29T07:19:24.042Z,8.73
2024-02-29T07:22:26.584Z,9.27
2024-02-29T07:25:32.457Z,8.65
2024-02-29T07:28:34.862Z,8.95
2024-02-29T07:31:41.627Z,9.35
2024-02-29T07:34:44.222Z,7.82
2024-02-29T07:37:46.904Z,8.80
2024-02-29T07:40:49.353Z,9.50
2024-02-29T07:43:51.777Z,8.55
2024-02-29T07:46:54.411Z,9.87
2024-02-29T07:49:59.198Z,8.63
2024-02-29T07:53:01.621Z,10.30
2024-02-29T07:56:08.153Z,12.25
2024-02-29T07:59:11.183Z,11.30
2024-02-29T08:02:13.742Z,10.70
2024-02-29T08:05:19.220Z,9.02
2024-02-29T08:08:22.508Z,10.90
2024-02-29T08:11:27.150Z,11.25
2024-02-29T08:14:30.249Z,10.90
2024-02-29T08:17:35.716Z,11.97
2024-02-29T08:20:39.669Z,11.00
2024-02-29T08:23:42.125Z,10.98
2024-02-29T08:26:47.119Z,12.70
2024-02-29T08:29:49.853Z,10.60
2024-02-29T08:32:52.342Z,11.20
2024-02-29T08:35:54.928Z,10.88
2024-02-29T08:38:57.373Z,10.60
2024-02-29T08:42:02.365Z,9.85
2024-02-29T08:45:05.450Z,10.02
2024-02-29T08:48:08.183Z,9.67
2024-02-29T08:51:10.591Z,9.95
2024-02-29T08:54:13.146Z,10.50
2024-02-29T08:57:16.018Z,10.75
2024-02-29T09:00:18.880Z,11.13
2024-02-29T09:03:21.791Z,11.15
2024-02-29T09:06:24.283Z,11.80
2024-02-29T09:09:29.206Z,9.67
2024-02-29T09:12:31.714Z,12.80
2024-02-29T09:15:34.457Z,12.40
2024-02-29T09:18:37.012Z,13.87
2024-02-29T09:21:41.686Z,12.35
2024-02-29T09:24:44.273Z,10.18
2024-02-29T09:27:46.771Z,12.75
2024-02-29T09:30:49.438Z,12.15
2024-02-29T09:33:54.747Z,11.38
2024-02-29T09:36:57.484Z,10.85
2024-02-29T09:40:01.996Z,10.83
2024-02-29T09:43:06.613Z,13.30
2024-02-29T09:46:11.530Z,11.80
2024-02-29T09:49:15.584Z,10.37
2024-02-29T09:52:18.509Z,12.23
2024-02-29T09:55:22.820Z,11.27
2024-02-29T09:58:27.390Z,12.43
2024-02-29T10:01:31.258Z,10.93
2024-02-29T10:04:34.112Z,11.27
2024-02-29T10:07:45.984Z,10.90
2024-02-29T10:10:49.680Z,11.57
2024-02-29T10:13:54.836Z,11.35
2024-02-29T10:16:58.104Z,10.30
2024-02-29T10:20:00.641Z,11.13
2024-02-29T10:23:11.094Z,10.40
2024-02-29T10:26:13.678Z,10.40
2024-02-29T10:29:18.139Z,11.52
2024-02-29T10:32:21.528Z,11.13
2024-02-29T10:35:28.811Z,10.95
2024-02-29T10:43:03.637Z,9.60
2024-02-29T10:46:07.249Z,9.70
2024-02-29T10:49:27.908Z,7.82
2024-02-29T10:52:38.735Z,8.93
2024-02-29T10:55:52.618Z,8.10
2024-02-29T10:59:04.460Z,9.00
2024-02-29T11:02:07.226Z,8.57
2024-02-29T11:05:10.868Z,8.13
2024-02-29T11:08:14.101Z,8.35
2024-02-29T11:11:21.354Z,8.45
2024-02-29T11:14:23.925Z,8.07
2024-02-29T11:17:32.428Z,8.63
2024-02-29T11:20:35.305Z,8.63
2024-02-29T11:23:42.970Z,7.57
2024-02-29T11:26:45.406Z,8.43
2024-02-29T11:29:59.762Z,9.68
2024-02-29T11:33:14.167Z,9.80
2024-02-29T11:36:17.053Z,8.35
2024-02-29T11:39:23.526Z,8.85
2024-02-29T11:42:25.991Z,11.18
2024-02-29T11:45:28.734Z,8.43
2024-02-29T11:48:31.337Z,8.05
2024-02-29T11:51:33.797Z,10.30
2024-02-29T11:54:36.744Z,8.87
2024-02-29T11:57:39.347Z,8.23
2024-02-29T12:00:41.937Z,8.65
2024-02-29T12:03:46.378Z,8.02
2024-02-29T12:06:49.475Z,8.73
2024-02-29T12:09:52.693Z,9.10
2024-02-29T12:12:56.714Z,9.35
2024-02-29T12:15:59.853Z,7.47
2024-02-29T12:19:03.097Z,8.38
2024-02-29T12:22:12.645Z,8.40
2024-02-29T12:25:15.734Z,9.70
2024-02-29T12:28:19.003Z,8.30
2024-02-29T12:31:22.532Z,8.50
2024-02-29T12:34:27.677Z,9.05
2024-02-29T12:40:34.142Z,10.35
2024-02-29T12:43:40.212Z,9.45
2024-02-29T12:46:42.610Z,9.30
2024-02-29T12:49:45.110Z,9.23
2024-02-29T12:52:51.446Z,9.40
2024-02-29T12:55:54.503Z,8.87
2024-02-29T12:58:57.015Z,9.20
2024-02-29T13:02:01.012Z,8.63
2024-02-29T13:05:04.372Z,8.35
2024-02-29T13:08:10.242Z,8.27
2024-02-29T13:11:12.731Z,9.55
2024-02-29T13:14:15.858Z,9.48
2024-02-29T13:17:18.452Z,8.37
2024-02-29T13:20:20.908Z,8.82
2024-02-29T13:23:23.482Z,9.02
2024-02-29T13:26:25.960Z,13.57
2024-02-29T13:29:29.138Z,14.35
2024-02-29T13:32:32.078Z,12.00
2024-02-29T13:35:34.595Z,11.85
2024-02-29T13:38:37.159Z,10.75
2024-02-29T13:41:39.726Z,14.13
2024-02-29T13:44:44.481Z,13.65
2024-02-29T13:47:52.509Z,12.10
2024-02-29T13:50:55.452Z,12.40
2024-02-29T13:54:00.451Z,12.23
2024-02-29T13:57:03.034Z,11.77
2024-02-29T14:00:10.437Z,11.40
2024-02-29T14:03:16.744Z,9.82
2024-02-29T14:06:21.704Z,9.52
2024-02-29T14:09:25.044Z,9.73
2024-02-29T14:12:28.731Z,9.10
2024-02-29T14:15:31.314Z,10.43
2024-02-29T14:18:34.562Z,9.57
2024-02-29T14:21:37.357Z,10.95
2024-02-29T14:24:40.224Z,13.25
2024-02-29T14:27:43.505Z,14.70
2024-02-29T14:30:46.374Z,11.10
2024-02-29T14:33:51.227Z,11.18
2024-02-29T14:36:54.608Z,11.25
2024-02-29T14:39:57.296Z,11.80
2024-02-29T14:43:00.157Z,13.18
2024-02-29T14:46:03.212Z,12.27
2024-02-29T14:49:06.645Z,12.20
2024-02-29T14:52:09.186Z,12.27
2024-02-29T14:55:12.019Z,13.35
2024-02-29T14:58:16.487Z,11.00
2024-02-29T15:01:19.977Z,12.30
2024-02-29T15:04:22.775Z,11.32
2024-02-29T15:07:28.593Z,11.13
2024-02-29T15:10:31.436Z,14.55
2024-02-29T15:13:34.113Z,15.55
2024-02-29T15:16:36.876Z,16.55
2024-02-29T15:19:41.185Z,17.23
2024-02-29T15:22:45.258Z,14.65
2024-02-29T15:25:49.058Z,17.23
2024-02-29T15:28:52.582Z,16.97
2024-02-29T15:31:58.113Z,16.40
2024-02-29T15:35:00.716Z,14.18
2024-02-29T15:38:03.353Z,20.65
2024-02-29T15:41:05.785Z,18.95
2024-02-29T15:44:08.270Z,16.63
2024-02-29T15:47:10.910Z,18.65
2024-02-29T15:50:15.625Z,19.77
2024-02-29T15:53:18.264Z,18.70
2024-02-29T15:56:20.779Z,18.77
2024-02-29T15:59:23.428Z,18.47
2024-02-29T16:02:27.250Z,17.40
2024-02-29T16:05:30.795Z,17.77
2024-02-29T16:08:35.821Z,14.98
2024-02-29T16:11:38.522Z,15.98
2024-02-29T16:14:44.491Z,14.20
2024-02-29T16:17:47.074Z,17.85
2024-02-29T16:20:52.629Z,21.03
2024-02-29T16:23:55.301Z,21.95
2024-02-29T16:26:57.938Z,19.88
2024-02-29T16:30:00.619Z,20.33
2024-02-29T16:33:06.349Z,14.45
2024-02-29T16:36:10.964Z,10.65
2024-02-29T16:39:13.793Z,15.93
2024-02-29T16:42:16.665Z,10.57
2024-02-29T16:45:19.602Z,11.50
2024-02-29T16:48:22.233Z,10.55
2024-02-29T16:51:24.828Z,10.33
2024-02-29T16:54:27.547Z,10.85
2024-02-29T16:57:32.935Z,9.90
2024-02-29T17:00:36.669Z,11.00
2024-02-29T17:03:39.461Z,12.07
2024-02-29T17:06:42.668Z,12.13
2024-02-29T17:09:46.434Z,13.23
2024-02-29T17:12:49.277Z,14.73
2024-02-29T17:15:52.095Z,15.40
2024-02-29T17:18:55.008Z,17.00
2024-02-29T17:21:57.635Z,18.37
2024-02-29T17:25:00.290Z,18.90
2024-02-29T17:28:03.198Z,18.02
2024-02-29T17:31:06.274Z,19.60
2024-02-29T17:34:08.860Z,18.02
2024-02-29T17:37:11.516Z,17.92
2024-02-29T17:40:14.326Z,17.90
2024-02-29T17:43:18.525Z,13.50
2024-02-29T17:46:21.568Z,12.77
2024-02-29T17:49:25.161Z,13.80
2024-02-29T17:52:28.405Z,15.80
2024-02-29T17:55:31.050Z,15.23
2024-02-29T17:58:33.998Z,13.80
2024-02-29T18:01:36.624Z,14.90
2024-02-29T18:04:39.771Z,15.00
2024-02-29T18:07:47.664Z,16.65
2024-02-29T18:10:57.801Z,17.70
2024-02-29T18:14:01.995Z,18.35
2024-02-29T18:17:04.945Z,26.25
2024-02-29T18:20:08.760Z,27.83
2024-02-29T18:23:13.513Z,31.03
2024-02-29T18:26:16.576Z,27.38
2024-02-29T18:29:19.243Z,29.25
2024-02-29T18:32:22.070Z,25.30
2024-02-29T18:35:24.600Z,26.25
2024-02-29T18:38:28.985Z,57.70
2024-02-29T18:41:35.542Z,39.58
2024-02-29T18:44:40.818Z,28.73
2024-02-29T18:47:43.588Z,29.67
2024-02-29T18:50:46.484Z,31.10
2024-02-29T18:53:49.261Z,36.90
2024-02-29T18:56:51.772Z,37.13
2024-02-29T18:59:54.431Z,38.15
2024-02-29T19:02:56.877Z,39.63
2024-02-29T19:06:00.157Z,34.67
2024-02-29T19:09:03.389Z,32.78
2024-02-29T19:12:07.277Z,31.60
2024-02-29T19:15:10.570Z,34.13
2024-02-29T19:18:13.489Z,50.70
2024-02-29T19:21:16.300Z,52.13
2024-02-29T19:24:18.921Z,48.43
2024-02-29T19:27:23.287Z,36.90
2024-02-29T19:30:26.185Z,40.63
2024-02-29T19:33:28.980Z,43.13
2024-02-29T19:36:32.115Z,48.85
2024-02-29T19:39:36.269Z,42.25
2024-02-29T19:42:41.555Z,45.25
2024-02-29T19:45:45.543Z,50.35
2024-02-29T19:48:48.174Z,36.70
2024-02-29T19:51:50.825Z,36.70
2024-02-29T19:54:53.715Z,33.90
2024-02-29T19:57:56.623Z,32.22
2024-02-29T20:01:04.136Z,34.05
2024-02-29T20:04:06.993Z,32.40
2024-02-29T20:07:10.041Z,35.83
2024-02-29T20:10:12.683Z,31.65
2024-02-29T20:13:15.493Z,31.45
2024-02-29T20:16:18.400Z,33.03
2024-02-29T20:19:21.057Z,33.97
2024-02-29T20:22:23.964Z,32.53
2024-02-29T20:25:27.663Z,28.47
2024-02-29T20:28:31.878Z,30.02
2024-02-29T20:31:34.954Z,33.30
2024-02-29T20:34:37.732Z,33.50
2024-02-29T20:37:40.203Z,32.90
2024-02-29T20:40:43.301Z,33.08
2024-02-29T20:43:46.021Z,34.88
2024-02-29T20:46:48.598Z,35.55
2024-02-29T20:49:51.263Z,31.77
2024-02-29T20:52:53.864Z,35.92
2024-02-29T20:55:56.350Z,42.60
2024-02-29T20:58:58.946Z,38.65
2024-02-29T21:02:01.440Z,38.35
2024-02-29T21:05:07.402Z,35.27
2024-02-29T21:08:09.895Z,38.45
2024-02-29T21:11:12.351Z,38.80
2024-02-29T21:14:14.857Z,36.67
2024-02-29T21:17:17.304Z,37.88
2024-02-29T21:20:20.059Z,36.72
2024-02-29T21:23:23.138Z,38.20
2024-02-29T21:26:26.970Z,35.50
2024-02-29T21:29:29.372Z,37.33
2024-02-29T21:32:32.455Z,40.15
2024-02-29T21:35:35.049Z,37.80
2024-02-29T21:38:37.521Z,37.53
2024-02-29T21:41:39.987Z,34.08
2024-02-29T21:44:42.622Z,32.75
2024-02-29T21:47:45.041Z,31.75
2024-02-29T21:50:47.480Z,29.45
2024-02-29T21:53:50.709Z,32.60
2024-02-29T21:56:53.482Z,29.20
2024-02-29T21:59:55.938Z,30.42
2024-02-29T22:02:58.384Z,30.52
2024-02-29T22:06:00.832Z,28.20
2024-02-29T22:09:03.457Z,27.95
2024-02-29T22:12:06.338Z,25.70
2024-02-29T22:15:09.304Z,23.10
2024-02-29T22:18:11.804Z,23.50
2024-02-29T22:21:14.242Z,26.35
2024-02-29T22:24:17.170Z,23.67
2024-02-29T22:27:19.595Z,24.17
2024-02-29T22:30:22.475Z,24.25
2024-02-29T22:33:24.903Z,21.30
2024-02-29T22:36:28.478Z,22.87
2024-02-29T22:39:30.996Z,21.17
2024-02-29T22:42:33.585Z,22.50
2024-02-29T22:45:36.045Z,23.70
2024-02-29T22:48:38.473Z,24.75
2024-02-29T22:51:41.097Z,21.50
2024-02-29T22:54:43.760Z,23.92
2024-02-29T22:57:46.549Z,24.30
2024-02-29T23:00:54.405Z,22.70
2024-02-29T23:03:57.409Z,21.92
2024-02-29T23:07:00.048Z,22.10
2024-02-29T23:10:03.467Z,25.65
2024-02-29T23:13:09.332Z,26.52
2024-02-29T23:16:12.286Z,27.20
2024-02-29T23:19:15.182Z,21.27
2024-02-29T23:22:17.627Z,23.67
2024-02-29T23:25:23.196Z,21.23
2024-02-29T23:28:26.862Z,23.30
2024-02-29T23:31:29.617Z,22.02
2024-02-29T23:34:32.158Z,22.77
2024-02-29T23:37:34.918Z,24.03
2024-02-29T23:40:37.783Z,22.20
2024-02-29T23:43:40.295Z,20.70
2024-02-29T23:46:42.933Z,20.98
2024-02-29T23:49:45.333Z,21.02
2024-02-29T23:52:47.765Z,19.67
2024-02-29T23:55:50.247Z,19.27
2024-02-29T23:58:52.784Z,19.93
